createdAt,value
2022-09-04T06:36:33.240Z,48.8
2022-09-04T06:42:10.878Z,41.4
2022-09-04T06:47:55.057Z,42.6
2022-09-04T06:53:38.911Z,46.9
2022-09-04T06:59:21.197Z,44.4
2022-09-04T07:04:59.414Z,43.9
2022-09-04T07:10:35.953Z,50.6
2022-09-04T07:15:57.081Z,45.8
2022-09-04T07:21:35.959Z,45.8
2022-09-04T07:27:12.360Z,50.5
2022-09-04T07:32:51.857Z,47.8
2022-09-04T07:38:33.548Z,48.8
2022-09-04T07:44:15.917Z,49.1
2022-09-04T07:49:53.930Z,49.4
2022-09-04T07:55:46.786Z,50.3
2022-09-04T08:01:23.875Z,51.3
2022-09-04T08:07:08.276Z,52.1
2022-09-04T08:12:47.579Z,52.8
2022-09-04T08:18:27.403Z,53.6
2022-09-04T08:24:04.699Z,54.4
2022-09-04T08:29:29.946Z,55.1
2022-09-04T08:35:12.715Z,55.1
2022-09-04T08:40:53.133Z,56.2
2022-09-04T08:46:16.247Z,56.3
2022-09-04T08:51:56.589Z,57.1
2022-09-04T09:07:53.380Z,58.8
2022-09-04T09:13:37.482Z,59.6
2022-09-04T09:19:03.590Z,59.6
2022-09-04T09:24:29.933Z,56.8
2022-09-04T09:30:08.494Z,56.9
2022-09-04T09:35:46.482Z,59.7
2022-09-04T09:41:16.358Z,60
2022-09-04T09:46:53.920Z,60.1
2022-09-04T09:52:41.416Z,60.5
2022-09-04T09:58:29.105Z,61.2
2022-09-04T10:04:07.347Z,62.3
2022-09-04T10:09:50.067Z,61.9
2022-09-04T10:15:26.055Z,61.7
2022-09-04T10:21:06.968Z,62.1
2022-09-04T10:26:49.320Z,62.6
2022-09-04T10:32:32.009Z,62.1
2022-09-04T10:38:16.600Z,62.7
2022-09-04T10:43:56.972Z,63.3
2022-09-04T11:07:04.557Z,63.6
2022-09-04T11:12:44.139Z,64.8
2022-09-04T11:18:27.257Z,65
2022-09-04T11:23:49.711Z,65.4
2022-09-04T11:29:29.370Z,65.4
2022-09-04T11:35:07.577Z,63.5
2022-09-04T11:40:49.349Z,65.1
2022-09-04T11:46:28.188Z,65.6
2022-09-04T11:52:05.591Z,65.7
2022-09-04T11:57:42.518Z,65.7
2022-09-04T12:03:20.925Z,65
2022-09-04T12:09:11.052Z,66.1
2022-09-04T12:15:05.587Z,66.1
2022-09-04T12:20:47.246Z,65.6
2022-09-04T12:26:24.182Z,62.2
2022-09-04T12:32:13.012Z,57.6
2022-09-04T12:37:56.580Z,60.7
2022-09-04T12:43:34.913Z,60.3
2022-09-04T12:49:16.949Z,58.7
2022-09-04T12:54:55.493Z,55.4
2022-09-04T13:06:23.782Z,49.4
2022-09-04T13:12:12.413Z,46.9
2022-09-04T13:17:51.968Z,45.5
2022-09-04T13:23:16.294Z,44.6
2022-09-04T13:29:00.421Z,44.7
2022-09-04T13:34:47.507Z,44.9
2022-09-04T13:40:24.163Z,45.5
2022-09-04T13:46:01.521Z,44.4
2022-09-04T13:51:53.478Z,43.4
2022-09-04T13:57:34.906Z,42.1
2022-09-04T14:03:20.805Z,40.6
2022-09-04T14:09:05.237Z,39.2
2022-09-04T14:14:48.182Z,37.8
2022-09-04T14:20:40.109Z,36.6
2022-09-04T14:26:27.039Z,36.9
2022-09-04T14:32:16.239Z,38.8
2022-09-04T14:38:07.419Z,38.1
2022-09-04T14:43:44.606Z,36.9
2022-09-04T14:49:28.882Z,35.8
2022-09-04T14:55:12.954Z,35.3
2022-09-04T15:00:52.370Z,35.2
2022-09-04T15:06:49.468Z,34.6
2022-09-04T15:12:58.094Z,33.6
2022-09-04T18:51:37.510Z,16.8
2022-09-04T18:57:32.673Z,16.7
2022-09-04T19:03:17.811Z,16.6
2022-09-04T19:09:10.285Z,16.6
2022-09-04T19:15:22.282Z,16.5
2022-09-04T19:21:22.230Z,16.4
2022-09-04T19:27:44.409Z,16.4
2022-09-04T19:33:32.137Z,16.3
2022-09-04T19:48:04.083Z,16.4
2022-09-04T19:59:33.177Z,16.4
2022-09-04T20:06:20.323Z,16.4
2022-09-04T20:12:09.068Z,16.4
2022-09-04T20:18:00.728Z,16.4
2022-09-04T20:24:09.286Z,16.4
2022-09-04T20:30:12.730Z,16.4
2022-09-04T20:36:09.559Z,16.3
2022-09-04T20:41:39.193Z,16.3
2022-09-04T20:55:08.473Z,16.3
2022-09-04T21:07:35.768Z,16.3
2022-09-04T21:12:37.743Z,16.4
2022-09-04T21:18:48.646Z,16.4
2022-09-04T21:25:18.463Z,16.4
2022-09-04T21:31:12.302Z,16.4
2022-09-04T21:37:40.111Z,16.5
2022-09-04T21:44:10.104Z,16.4
2022-09-04T21:50:24.465Z,16.5
2022-09-04T22:04:46.501Z,16.6
2022-09-04T22:17:30.960Z,16.6
2022-09-04T22:23:20.151Z,16.6
2022-09-04T22:29:57.065Z,16.6
2022-09-04T22:36:20.843Z,16.6
2022-09-04T22:42:08.159Z,16.6
2022-09-04T22:48:01.765Z,16.6
2022-09-04T22:54:06.985Z,16.7
2022-09-04T23:00:57.056Z,16.7
2022-09-04T23:15:08.207Z,16.8
2022-09-04T23:30:25.050Z,16.4
2022-09-04T23:36:51.175Z,16.3
2022-09-04T23:42:48.113Z,16.1
2022-09-04T23:49:24.257Z,15.9
2022-09-04T23:54:59.244Z,15.8
